createdAt,value
2022-11-15T08:27:37.754Z,20.83
2022-11-15T08:33:18.064Z,20.53
2022-11-15T08:38:39.245Z,19.80
2022-11-15T08:44:00.487Z,18.13
2022-11-15T08:49:21.956Z,16.60
2022-11-15T08:54:43.181Z,17.97
2022-11-15T09:00:06.348Z,16.07
2022-11-15T09:05:28.464Z,15.53
2022-11-15T09:10:49.606Z,17.27
2022-11-15T09:16:12.999Z,13.57
2022-11-15T09:21:34.361Z,12.30
2022-11-15T09:26:55.397Z,12.47
2022-11-15T09:32:16.501Z,11.53
2022-11-15T09:37:37.716Z,10.67
2022-11-15T09:43:14.170Z,10.00
2022-11-15T09:48:47.391Z,10.17
2022-11-15T09:59:43.607Z,9.27
2022-11-15T10:04:46.776Z,7.23
2022-11-15T10:10:03.000Z,12.27
2022-11-15T10:15:12.814Z,7.80
2022-11-15T10:20:25.092Z,7.80
2022-11-15T10:25:30.689Z,8.03
2022-11-15T10:30:40.648Z,9.10
2022-11-15T10:35:43.818Z,7.53
2022-11-15T10:40:46.626Z,8.07
2022-11-15T10:45:51.029Z,5.70
2022-11-15T10:50:56.111Z,6.03
2022-11-15T10:56:06.269Z,6.30
2022-11-15T11:01:18.039Z,6.80
2022-11-15T11:06:23.644Z,5.97
2022-11-15T11:11:46.131Z,5.53
2022-11-15T11:17:16.883Z,5.33
2022-11-15T11:22:43.767Z,4.87
2022-11-15T11:28:20.530Z,5.10
2022-11-15T11:33:37.535Z,6.40
2022-11-15T11:38:55.960Z,3.37
2022-11-15T11:44:25.531Z,5.57
2022-11-15T11:49:33.492Z,5.83
2022-11-15T11:55:01.374Z,4.27
2022-11-15T12:00:21.104Z,6.17
2022-11-15T12:05:40.533Z,6.87
2022-11-15T12:10:49.634Z,4.33
2022-11-15T12:16:14.738Z,5.20
2022-11-15T12:21:42.133Z,7.00
2022-11-15T12:26:54.912Z,7.50
2022-11-15T12:32:01.071Z,7.70
2022-11-15T12:37:24.051Z,9.27
2022-11-15T12:42:40.251Z,14.70
2022-11-15T12:47:43.094Z,8.40
2022-11-15T12:53:23.375Z,8.17
2022-11-15T12:58:42.010Z,9.10
2022-11-15T13:04:20.169Z,6.87
2022-11-15T13:09:35.024Z,11.47
2022-11-15T13:14:48.432Z,5.47
2022-11-15T13:20:01.418Z,6.47
2022-11-15T13:25:05.173Z,5.63
2022-11-15T13:30:15.412Z,6.00
2022-11-15T13:35:24.800Z,6.93
2022-11-15T13:40:31.572Z,6.13
2022-11-15T13:45:34.362Z,5.13
2022-11-15T13:50:40.437Z,7.13
2022-11-15T13:55:43.541Z,6.00
2022-11-15T14:00:48.361Z,9.63
2022-11-15T14:06:14.202Z,10.90
2022-11-15T14:11:21.471Z,8.13
2022-11-15T14:16:38.015Z,6.17
2022-11-15T14:22:17.804Z,5.47
2022-11-15T14:27:27.173Z,7.70
2022-11-15T14:32:45.180Z,6.47
2022-11-15T14:37:48.573Z,7.87
2022-11-15T14:42:52.056Z,10.13
2022-11-15T14:47:54.915Z,7.73
2022-11-15T14:52:57.705Z,9.67
2022-11-15T14:58:00.943Z,7.20
2022-11-15T15:03:04.670Z,7.53
2022-11-15T15:08:07.843Z,13.87
2022-11-15T15:13:21.248Z,26.30
2022-11-15T15:18:24.072Z,13.50
2022-11-15T15:23:30.323Z,11.23
2022-11-15T15:28:34.841Z,8.47
2022-11-15T15:33:38.315Z,15.70
2022-11-15T15:38:42.469Z,11.37
2022-11-15T15:43:45.389Z,15.30
2022-11-15T15:48:48.469Z,9.30
2022-11-15T15:53:52.656Z,10.03
2022-11-15T15:58:56.591Z,16.23
2022-11-15T16:03:59.376Z,6.93
2022-11-15T16:09:15.118Z,17.60
2022-11-15T16:14:18.334Z,10.33
2022-11-15T16:19:21.138Z,7.77
2022-11-15T16:24:24.079Z,8.93
2022-11-15T16:29:27.098Z,9.27
2022-11-15T16:34:33.839Z,14.30
2022-11-15T16:39:38.842Z,10.93
2022-11-15T16:44:41.655Z,8.20
2022-11-15T16:49:45.485Z,17.80
2022-11-15T16:54:48.306Z,14.73
2022-11-15T16:59:51.075Z,24.43
2022-11-15T17:04:53.858Z,28.83
2022-11-15T17:09:56.619Z,19.03
2022-11-15T17:14:59.453Z,16.87
2022-11-15T17:20:05.158Z,13.27
2022-11-15T17:25:08.088Z,17.57
2022-11-15T17:30:13.071Z,13.20
2022-11-15T17:35:16.130Z,15.10
2022-11-15T17:40:19.057Z,15.20
2022-11-15T17:45:21.973Z,10.57
2022-11-15T17:50:24.728Z,11.00
2022-11-15T17:55:27.519Z,12.17
2022-11-15T18:00:30.315Z,11.33
2022-11-15T18:05:33.116Z,19.83
2022-11-15T18:10:35.888Z,16.60
2022-11-15T18:15:38.768Z,24.17
2022-11-15T18:20:41.530Z,16.97
2022-11-15T18:25:51.185Z,18.87
2022-11-15T18:30:53.958Z,14.93
2022-11-15T18:36:05.466Z,12.57
2022-11-15T18:41:11.334Z,17.17
2022-11-15T18:46:16.728Z,13.67
2022-11-15T18:51:27.449Z,15.00
2022-11-15T18:56:32.484Z,17.03
2022-11-15T19:01:37.671Z,14.70
2022-11-15T19:06:42.468Z,29.43
2022-11-15T19:11:47.158Z,63.07
2022-11-15T19:16:52.164Z,35.50
2022-11-15T19:21:58.075Z,53.93
2022-11-15T19:27:00.941Z,53.03
2022-11-15T19:32:05.378Z,64.83
2022-11-15T19:37:08.180Z,57.00
2022-11-15T19:42:11.165Z,32.03
2022-11-15T19:47:13.987Z,28.13
2022-11-15T19:52:16.704Z,36.37
2022-11-15T19:57:19.483Z,36.80
2022-11-15T20:02:22.201Z,31.03
2022-11-15T20:07:25.053Z,29.20
2022-11-15T20:12:27.854Z,61.27
2022-11-15T20:17:30.570Z,42.53
2022-11-15T20:22:36.334Z,28.37
2022-11-15T20:27:39.044Z,26.47
2022-11-15T20:32:41.920Z,26.23
2022-11-15T20:37:45.579Z,22.00
2022-11-15T20:42:48.332Z,19.50
2022-11-15T20:47:51.055Z,18.67
2022-11-15T20:52:55.449Z,19.87
2022-11-15T20:57:58.231Z,15.50
2022-11-15T21:03:00.944Z,17.00
2022-11-15T21:08:03.763Z,13.30
2022-11-15T21:13:06.476Z,17.70
2022-11-15T21:18:09.361Z,14.07
2022-11-15T21:23:12.695Z,23.07
2022-11-15T21:28:15.406Z,24.23
2022-11-15T21:33:18.602Z,23.57
2022-11-15T21:38:23.787Z,18.27
2022-11-15T21:43:26.619Z,24.77
2022-11-15T21:48:31.930Z,14.77
2022-11-15T21:53:35.595Z,13.97
2022-11-15T21:58:39.660Z,16.77
2022-11-15T22:03:43.134Z,15.33
2022-11-15T22:08:46.831Z,21.07
2022-11-15T22:13:49.626Z,12.67
2022-11-15T22:18:52.451Z,16.67
2022-11-15T22:23:55.247Z,12.27
2022-11-15T22:28:58.047Z,17.73
2022-11-15T22:34:00.870Z,15.53
2022-11-15T22:39:03.686Z,15.70
2022-11-15T22:44:06.673Z,17.97
2022-11-15T22:49:09.607Z,13.57
2022-11-15T22:54:12.418Z,15.10
2022-11-15T22:59:15.245Z,12.63
2022-11-15T23:04:18.068Z,24.63
2022-11-15T23:09:20.841Z,19.23
